Time;durP1;ratioP1;P1;durP2;ratioP2;P2;SDS_P1;SDS_P2;PMS_P1;PMS_P2;Temp;Humidity;BMP_temperature;BMP_pressure;BME280_temperature;BME280_humidity;BME280_pressure;Samples;Min_cycle;Max_cycle;Signal;HPM_P1;HPM_P2
2022/05/31 00:01:10;;;;;;;8.38;6.30;;;;;;;19.52;36.54;93158.44;5004970;28;20391;-87
2022/05/31 00:03:35;;;;;;;9.82;6.78;;;;;;;19.51;36.57;93156.22;4978717;28;20030;-88
2022/05/31 00:06:01;;;;;;;10.18;6.60;;;;;;;19.49;36.64;93162.19;4978095;28;20045;-87
2022/05/31 00:08:26;;;;;;;8.75;6.40;;;;;;;19.54;36.50;93159.91;4979519;28;20049;-88
2022/05/31 00:10:52;;;;;;;8.98;6.00;;;;;;;19.51;36.65;93159.69;5013306;28;20123;-88
2022/05/31 00:13:17;;;;;;;10.38;6.50;;;;;;;19.50;36.60;93154.72;5012682;28;20036;-87
2022/05/31 00:15:42;;;;;;;8.52;5.97;;;;;;;19.49;36.59;93153.97;4997648;28;20040;-87
2022/05/31 00:18:08;;;;;;;8.00;6.28;;;;;;;19.48;36.73;93151.78;4993225;28;20045;-88
2022/05/31 00:20:34;;;;;;;8.18;6.00;;;;;;;19.48;36.47;93158.00;4994030;28;20046;-87
2022/05/31 00:22:59;;;;;;;8.25;6.20;;;;;;;19.48;36.98;93141.53;4993426;28;20033;-89
2022/05/31 00:25:25;;;;;;;8.77;6.43;;;;;;;19.48;36.68;93132.59;4993411;28;20432;-88
2022/05/31 00:27:50;;;;;;;7.45;6.13;;;;;;;19.47;36.65;93142.06;4993313;28;20408;-88
2022/05/31 00:30:16;;;;;;;6.68;5.63;;;;;;;19.50;36.63;93141.75;4993344;28;20298;-88
2022/05/31 00:32:44;;;;;;;8.45;5.70;;;;;;;19.47;36.60;93139.31;5009314;28;20045;-88
2022/05/31 00:35:22;;;;;;;7.28;5.00;;;;;;;19.46;36.59;93138.59;4992965;28;20442;-88
2022/05/31 00:37:48;;;;;;;8.27;5.90;;;;;;;19.45;36.87;93128.88;4997254;28;20049;-88
2022/05/31 00:40:14;;;;;;;9.38;6.22;;;;;;;19.46;36.54;93126.88;5012759;28;20048;-88
2022/05/31 00:42:48;;;;;;;7.32;5.55;;;;;;;19.47;36.63;93122.88;5012925;28;20036;-88
2022/05/31 00:45:14;;;;;;;6.65;5.50;;;;;;;19.46;36.62;93124.13;5008723;28;20029;-88
2022/05/31 00:47:39;;;;;;;9.45;5.43;;;;;;;19.50;36.59;93124.56;5009309;28;20407;-87
2022/05/31 00:50:08;;;;;;;8.45;5.70;;;;;;;19.46;36.75;93115.91;5009837;28;20029;-88
2022/05/31 00:52:40;;;;;;;6.97;5.32;;;;;;;19.45;36.42;93120.66;5010013;28;20472;-88
2022/05/31 00:55:16;;;;;;;6.55;5.15;;;;;;;19.45;36.73;93125.41;4992949;28;20041;-88
2022/05/31 00:57:45;;;;;;;6.53;4.80;;;;;;;19.45;36.58;93128.88;5028249;28;20513;-87
2022/05/31 01:00:13;;;;;;;8.43;5.57;;;;;;;19.46;36.67;93122.13;5013746;28;20082;-88
2022/05/31 01:02:40;;;;;;;7.47;4.75;;;;;;;19.45;36.69;93128.16;5012678;28;20376;-88
2022/05/31 01:05:06;;;;;;;6.60;5.57;;;;;;;19.42;36.62;93129.94;4995696;28;20032;-88
2022/05/31 01:07:32;;;;;;;6.63;4.85;;;;;;;19.45;36.53;93128.16;4992532;28;20048;-89
2022/05/31 01:09:57;;;;;;;7.00;5.15;;;;;;;19.43;36.64;93125.19;5004617;28;20037;-88
2022/05/31 01:12:23;;;;;;;6.35;4.55;;;;;;;19.43;36.56;93128.66;5026780;28;20037;-88
2022/05/31 01:14:48;;;;;;;5.50;4.43;;;;;;;19.43;36.38;93116.97;5012339;28;20418;-88
2022/05/31 01:17:17;;;;;;;6.28;4.55;;;;;;;19.43;36.46;93125.19;5011661;28;20123;-88
2022/05/31 01:20:00;;;;;;;5.32;4.18;;;;;;;19.46;36.60;93126.88;4993368;28;20060;-88
2022/05/31 01:22:29;;;;;;;5.38;4.85;;;;;;;19.44;36.43;93124.66;5019320;28;20071;-88
2022/05/31 01:25:01;;;;;;;5.50;4.57;;;;;;;19.43;36.71;93127.94;5066875;28;20464;-87
2022/05/31 01:27:31;;;;;;;6.68;4.50;;;;;;;19.42;36.74;93126.44;5047769;28;20040;-88
2022/05/31 01:29:56;;;;;;;5.82;4.43;;;;;;;19.42;36.67;93124.44;5031819;28;20068;-88
2022/05/31 01:32:21;;;;;;;5.43;4.25;;;;;;;19.42;36.75;93121.69;5014780;28;20090;-88
2022/05/31 01:34:53;;;;;;;4.80;4.10;;;;;;;19.43;36.77;93119.69;5031170;28;20029;-88
2022/05/31 01:37:33;;;;;;;4.75;3.83;;;;;;;19.42;36.68;93115.47;5014708;28;20434;-89
2022/05/31 01:40:00;;;;;;;5.73;4.43;;;;;;;19.40;36.81;93118.75;5003605;28;20040;-88
2022/05/31 01:42:38;;;;;;;5.55;4.70;;;;;;;19.42;36.74;93115.47;5011452;28;20033;-87
2022/05/31 01:45:08;;;;;;;4.65;3.80;;;;;;;19.40;36.67;93121.47;4994359;28;20886;-87
2022/05/31 01:47:34;;;;;;;5.17;4.17;;;;;;;19.42;36.63;93129.19;5011995;28;20178;-88
2022/05/31 01:49:59;;;;;;;5.72;4.00;;;;;;;19.40;36.56;93126.22;5027876;28;20040;-88
2022/05/31 01:52:25;;;;;;;5.10;3.80;;;;;;;19.40;36.83;93126.22;5028274;28;20037;-89
2022/05/31 01:54:51;;;;;;;4.25;3.60;;;;;;;19.39;36.75;93119.25;5028234;28;20033;-87
2022/05/31 01:57:17;;;;;;;4.53;3.90;;;;;;;19.38;36.67;93126.00;5010981;28;20033;-87
2022/05/31 01:59:46;;;;;;;5.32;4.05;;;;;;;19.38;36.90;93115.03;5010514;28;20112;-87
2022/05/31 02:02:15;;;;;;;5.70;4.15;;;;;;;19.36;36.71;93121.06;5042760;28;20039;-88
2022/05/31 02:04:42;;;;;;;4.90;3.40;;;;;;;19.38;36.65;93113.03;5032059;28;20402;-88
2022/05/31 02:07:12;;;;;;;5.05;3.40;;;;;;;19.36;36.79;93115.56;5047321;28;20056;-88
2022/05/31 02:09:38;;;;;;;4.53;3.95;;;;;;;19.38;36.54;93115.78;5025212;28;20117;-88
2022/05/31 02:12:05;;;;;;;6.85;3.78;;;;;;;19.37;36.41;93133.50;4994339;28;20550;-88
2022/05/31 02:14:30;;;;;;;5.03;3.55;;;;;;;19.38;36.53;93117.78;5027592;28;20041;-89
2022/05/31 02:16:56;;;;;;;4.72;3.63;;;;;;;19.37;36.53;93119.78;4995102;28;20117;-87
2022/05/31 02:19:28;;;;;;;4.97;3.53;;;;;;;19.39;36.60;93116.53;5010793;28;20186;-87
2022/05/31 02:21:58;;;;;;;3.20;2.90;;;;;;;19.37;36.57;93113.56;5035832;28;20047;-88
2022/05/31 02:24:25;;;;;;;4.40;4.00;;;;;;;19.37;36.89;93108.09;5014196;28;20040;-88
2022/05/31 02:26:50;;;;;;;4.95;3.60;;;;;;;19.37;37.08;93116.31;5047292;28;20406;-87
2022/05/31 02:29:18;;;;;;;4.78;3.90;;;;;;;19.35;36.68;93103.13;5014248;28;20315;-88
2022/05/31 02:31:44;;;;;;;4.20;3.13;;;;;;;19.35;36.59;93105.13;5014633;28;20036;-88
2022/05/31 02:34:10;;;;;;;5.10;3.35;;;;;;;19.35;36.93;93105.13;5013601;28;20461;-87
2022/05/31 02:36:35;;;;;;;4.38;3.47;;;;;;;19.36;36.97;93104.59;5031030;28;20120;-88
2022/05/31 02:39:01;;;;;;;4.35;3.55;;;;;;;19.34;36.65;93103.66;5031327;28;20032;-88
2022/05/31 02:41:28;;;;;;;5.00;3.70;;;;;;;19.34;36.78;93100.91;5030697;28;20032;-87
2022/05/31 02:43:54;;;;;;;4.75;3.63;;;;;;;19.33;36.92;93089.19;5012974;28;20036;-88
2022/05/31 02:46:20;;;;;;;3.40;2.95;;;;;;;19.33;36.56;93097.44;5026892;28;20514;-88
2022/05/31 02:48:45;;;;;;;4.20;3.35;;;;;;;19.32;37.11;93087.72;5011087;28;20041;-88
2022/05/31 02:51:11;;;;;;;3.50;3.20;;;;;;;19.32;36.68;93087.72;5024414;28;20033;-88
2022/05/31 02:53:37;;;;;;;4.63;3.60;;;;;;;19.32;36.75;93095.94;5007974;28;20033;-87
2022/05/31 02:56:03;;;;;;;3.83;3.00;;;;;;;19.32;36.65;93087.72;4992508;28;20107;-87
2022/05/31 02:58:28;;;;;;;4.05;3.10;;;;;;;19.33;36.78;93089.19;4997862;28;20479;-89
2022/05/31 03:00:54;;;;;;;3.58;3.03;;;;;;;19.30;36.80;93090.25;5014923;28;20037;-88
2022/05/31 03:03:19;;;;;;;3.72;3.30;;;;;;;19.32;36.91;93087.72;5014488;28;20041;-88
2022/05/31 03:05:45;;;;;;;3.50;2.97;;;;;;;19.31;36.93;93089.00;5014572;28;20032;-87
2022/05/31 03:08:11;;;;;;;3.67;2.92;;;;;;;19.31;36.80;93080.03;5014290;28;20049;-87
2022/05/31 03:10:37;;;;;;;3.65;2.85;;;;;;;19.30;37.00;93079.28;5014324;28;20115;-88
2022/05/31 03:13:02;;;;;;;4.70;3.03;;;;;;;19.29;36.85;93080.53;5031136;28;20037;-88
2022/05/31 03:15:29;;;;;;;4.95;3.13;;;;;;;19.31;37.10;93086.25;4998448;28;20043;-87
2022/05/31 03:18:03;;;;;;;3.35;3.03;;;;;;;19.30;36.65;93073.81;4998542;28;20041;-88
2022/05/31 03:20:43;;;;;;;3.10;2.80;;;;;;;19.32;36.99;93070.53;4998469;28;20033;-87
2022/05/31 03:23:14;;;;;;;3.00;2.70;;;;;;;19.33;36.91;93069.28;5014951;28;20064;-87
2022/05/31 03:25:40;;;;;;;3.17;2.70;;;;;;;19.32;36.99;93073.28;5031051;28;20484;-87
2022/05/31 03:28:05;;;;;;;3.40;2.80;;;;;;;19.30;36.99;93070.31;5014166;28;20235;-88
2022/05/31 03:30:33;;;;;;;3.88;2.80;;;;;;;19.33;36.59;93070.00;5014631;28;20059;-89
2022/05/31 03:32:58;;;;;;;2.92;2.60;;;;;;;19.31;36.92;93075.28;5023623;28;20031;-88
2022/05/31 03:35:24;;;;;;;2.67;2.45;;;;;;;19.32;36.66;93078.75;4996736;28;20041;-88
2022/05/31 03:37:49;;;;;;;3.28;2.78;;;;;;;19.32;36.49;93084.25;4991384;28;20504;-86
2022/05/31 03:40:55;;;;;;;10.80;3.13;;;;;;;19.32;36.84;93079.50;4960228;28;20031;-90
2022/05/31 03:43:02;;;;;;;3.45;3.00;;;;;;;19.33;36.85;93074.75;4982458;28;20061;-89
2022/05/31 03:45:41;;;;;;;39.15;33.53;;;;;;;19.36;36.97;93084.69;4958818;28;20062;-88
2022/05/31 03:48:07;;;;;;;2.97;2.65;;;;;;;19.32;37.01;93081.50;5012487;28;20038;-87
2022/05/31 03:50:33;;;;;;;3.63;2.47;;;;;;;19.31;36.79;93082.75;4980831;28;20037;-87
2022/05/31 03:52:58;;;;;;;3.22;2.83;;;;;;;19.31;36.85;93088.25;5012119;28;20045;-88
2022/05/31 03:55:23;;;;;;;3.05;2.53;;;;;;;19.35;36.92;93100.38;4969519;28;20453;-88
2022/05/31 03:57:50;;;;;;;5.07;3.03;;;;;;;19.34;36.94;93092.69;4954473;28;20504;-91
2022/05/31 04:00:15;;;;;;;3.63;2.72;;;;;;;19.26;36.32;93095.31;4980770;28;20089;-90
2022/05/31 04:02:41;;;;;;;6.90;5.00;;;;;;;19.20;35.75;93108.38;4974523;28;20445;-90
2022/05/31 04:05:07;;;;;;;38.08;6.78;;;;;;;19.04;35.97;93101.16;4963426;28;20166;-89
2022/05/31 04:07:32;;;;;;;15.93;5.20;;;;;;;19.01;35.84;93104.94;4948369;28;20037;-89
2022/05/31 04:09:58;;;;;;;13.82;8.10;;;;;;;18.90;35.77;93100.38;4956567;28;20053;-90
2022/05/31 04:12:23;;;;;;;7.05;3.90;;;;;;;18.84;36.04;93105.91;4986543;28;20046;-89
2022/05/31 04:14:49;;;;;;;5.72;3.33;;;;;;;18.79;36.14;93108.75;4955231;28;20041;-88
2022/05/31 04:17:14;;;;;;;8.55;3.38;;;;;;;18.81;36.19;93103.50;4971456;28;20045;-87
2022/05/31 04:19:40;;;;;;;5.72;2.72;;;;;;;18.72;35.96;93106.63;4958250;28;20076;-87
2022/05/31 04:22:05;;;;;;;8.57;3.88;;;;;;;18.73;36.49;93102.63;4989312;28;20197;-88
2022/05/31 04:24:31;;;;;;;4.05;2.50;;;;;;;18.67;36.52;93105.44;4966831;28;20050;-90
2022/05/31 04:26:58;;;;;;;9.23;5.15;;;;;;;18.64;36.72;93114.69;4986143;28;20051;-90
2022/05/31 04:29:23;;;;;;;32.75;12.30;;;;;;;18.54;36.81;93116.31;4990551;28;20100;-89
2022/05/31 04:31:50;;;;;;;32.10;9.68;;;;;;;18.64;37.13;93116.69;5009783;28;20040;-88
2022/05/31 04:34:15;;;;;;;9.90;6.32;;;;;;;18.54;37.14;93110.81;5011717;28;20100;-88
2022/05/31 04:36:41;;;;;;;57.33;24.73;;;;;;;18.57;37.32;93115.28;5010690;28;20038;-90
2022/05/31 04:39:06;;;;;;;29.90;18.65;;;;;;;18.52;36.90;93109.88;4975710;28;20045;-91
2022/05/31 04:41:32;;;;;;;23.48;13.95;;;;;;;18.53;36.90;93108.59;5015293;28;20041;-89
2022/05/31 04:43:59;;;;;;;47.72;13.60;;;;;;;18.55;37.49;93114.31;4993973;28;20033;-91
2022/05/31 04:46:26;;;;;;;17.17;6.47;;;;;;;18.57;36.83;93112.53;4973325;28;20042;-90
2022/05/31 04:48:53;;;;;;;15.30;5.20;;;;;;;18.57;37.09;93111.78;4977888;28;20729;-91
2022/05/31 04:51:19;;;;;;;28.00;6.05;;;;;;;18.52;36.96;93109.88;5009252;28;20041;-90
2022/05/31 04:53:45;;;;;;;35.35;6.90;;;;;;;18.55;36.93;93117.78;5007107;28;20041;-91
2022/05/31 04:56:12;;;;;;;33.20;8.70;;;;;;;18.43;37.29;93116.44;5013996;28;20300;-93
2022/05/31 04:58:38;;;;;;;109.10;36.63;;;;;;;18.47;37.17;93128.56;4980870;28;20493;-90
2022/05/31 05:01:06;;;;;;;72.20;21.00;;;;;;;18.40;37.26;93120.22;5010049;28;20038;-89
2022/05/31 05:03:33;;;;;;;52.03;15.60;;;;;;;18.41;37.14;93116.94;5012270;28;20124;-88
2022/05/31 05:06:03;;;;;;;40.95;10.40;;;;;;;18.42;37.42;93107.50;5003455;28;20152;-90
2022/05/31 05:08:28;;;;;;;32.72;9.32;;;;;;;18.39;37.80;93122.22;5006053;28;20865;-92
2022/05/31 05:10:54;;;;;;;61.97;10.20;;;;;;;18.38;38.06;93115.28;4986943;28;20103;-93
2022/05/31 05:13:19;;;;;;;34.58;9.85;;;;;;;18.45;37.60;93124.88;5005104;28;20049;-87
2022/05/31 05:15:45;;;;;;;46.35;12.45;;;;;;;18.47;37.59;93123.09;5007688;28;20064;-94
2022/05/31 05:18:11;;;;;;;27.00;11.57;;;;;;;18.41;37.47;93124.41;5003836;28;20053;-92
2022/05/31 05:20:39;;;;;;;30.80;12.90;;;;;;;18.39;37.91;93124.97;4990972;28;20101;-93
2022/05/31 05:23:07;;;;;;;43.10;17.20;;;;;;;18.42;37.55;93128.63;4985864;28;20029;-89
2022/05/31 05:25:32;;;;;;;23.70;10.98;;;;;;;18.49;37.58;93130.78;4983690;28;20048;-93
2022/05/31 05:27:58;;;;;;;34.30;10.20;;;;;;;18.42;37.54;93126.66;4994552;28;20037;-92
2022/05/31 05:30:40;;;;;;;27.00;8.30;;;;;;;18.44;37.63;93124.13;5009631;28;20041;-93
2022/05/31 05:33:10;;;;;;;52.47;9.52;;;;;;;18.46;38.34;93126.34;4975535;28;20488;-91
2022/05/31 05:35:35;;;;;;;50.83;9.00;;;;;;;18.41;38.04;93116.22;4994179;28;20041;-89
2022/05/31 05:38:01;;;;;;;53.42;11.48;;;;;;;18.42;39.31;93121.16;5007720;28;20745;-92
2022/05/31 05:40:27;;;;;;;67.80;20.17;;;;;;;18.40;38.48;93117.50;5023310;28;20411;-89
2022/05/31 05:42:52;;;;;;;62.42;22.50;;;;;;;18.40;38.74;93117.50;5030568;28;20393;-87
2022/05/31 05:45:18;;;;;;;55.28;14.73;;;;;;;18.38;38.96;93111.78;5028006;28;20033;-89
2022/05/31 05:47:44;;;;;;;48.15;15.27;;;;;;;18.41;39.03;93110.75;5031174;28;20033;-91
2022/05/31 05:50:10;;;;;;;44.20;14.27;;;;;;;18.46;39.20;93104.47;5011751;28;20040;-86
2022/05/31 05:52:37;;;;;;;43.20;14.07;;;;;;;18.42;39.64;93110.22;4993815;28;20037;-90
2022/05/31 05:55:04;;;;;;;42.75;15.13;;;;;;;18.36;39.95;93117.78;5008073;28;20040;-87
2022/05/31 05:57:29;;;;;;;40.67;17.73;;;;;;;18.39;39.88;93124.22;5023726;28;20048;-89
2022/05/31 05:59:56;;;;;;;63.85;18.63;;;;;;;18.37;39.94;93127.47;5012447;28;20072;-90
2022/05/31 06:02:29;;;;;;;76.88;22.58;;;;;;;18.31;40.61;93120.59;5001138;28;20041;-88
2022/05/31 06:05:03;;;;;;;42.15;12.32;;;;;;;18.30;40.59;93116.38;5011057;28;20041;-93
2022/05/31 06:07:34;;;;;;;37.38;12.93;;;;;;;18.36;40.30;93119.78;5048697;28;20037;-93
2022/05/31 06:10:06;;;;;;;270.02;179.98;;;;;;;18.35;40.59;93110.84;5040373;28;20029;-92
2022/05/31 06:12:35;;;;;;;75.22;34.05;;;;;;;18.39;40.12;93119.50;5012353;28;20051;-88
2022/05/31 06:15:05;;;;;;;46.55;30.13;;;;;;;18.37;40.07;93110.31;5051231;28;20063;-86
2022/05/31 06:17:34;;;;;;;29.07;12.93;;;;;;;18.51;40.15;93117.34;4999874;28;20048;-88
2022/05/31 06:20:01;;;;;;;18.63;9.38;;;;;;;18.40;39.78;93122.97;5009942;28;20068;-88
2022/05/31 06:22:27;;;;;;;19.10;9.45;;;;;;;18.35;40.42;93129.25;4992036;28;20124;-88
2022/05/31 06:24:52;;;;;;;30.13;9.13;;;;;;;18.47;40.00;93128.56;4984950;28;20145;-90
2022/05/31 06:27:20;;;;;;;36.60;10.43;;;;;;;18.50;39.86;93124.81;4943403;28;20096;-92
2022/05/31 06:29:46;;;;;;;28.55;9.40;;;;;;;18.46;40.40;93120.88;4936907;28;20038;-91
2022/05/31 06:32:14;;;;;;;37.63;13.77;;;;;;;18.55;39.88;93120.53;4964449;28;20054;-91
2022/05/31 06:34:40;;;;;;;71.15;22.02;;;;;;;18.58;39.97;93121.47;4972046;28;20034;-91
2022/05/31 06:37:09;;;;;;;142.55;56.45;;;;;;;18.54;40.24;93124.50;4951051;28;20072;-91
2022/05/31 06:39:35;;;;;;;266.88;101.28;;;;;;;18.49;40.13;93125.31;4939104;28;20043;-89
2022/05/31 06:42:01;;;;;;;185.57;71.05;;;;;;;18.53;40.50;93120.28;4932748;28;20340;-88
2022/05/31 06:44:30;;;;;;;209.43;86.78;;;;;;;18.54;40.29;93124.50;4957352;28;20506;-89
2022/05/31 06:46:59;;;;;;;211.07;94.20;;;;;;;18.57;40.57;93122.75;4961218;28;20154;-94
2022/05/31 06:49:26;;;;;;;245.77;97.82;;;;;;;18.58;40.29;93122.22;4952786;28;20047;-90
2022/05/31 06:58:04;;;;;;;146.88;58.83;;;;;;;18.76;40.16;93120.75;5308682;23;20052;-94
2022/05/31 07:00:29;;;;;;;112.18;45.58;;;;;;;18.78;39.94;93118.25;5022777;28;20775;-91
2022/05/31 07:02:55;;;;;;;90.60;38.83;;;;;;;18.78;39.52;93113.50;4997556;28;20481;-90
2022/05/31 07:05:22;;;;;;;78.13;37.35;;;;;;;18.84;39.84;93118.88;5027255;28;20037;-87
2022/05/31 07:07:51;;;;;;;88.28;40.13;;;;;;;18.80;39.43;93121.94;5005399;28;20085;-88
2022/05/31 07:10:16;;;;;;;98.35;45.40;;;;;;;18.92;39.10;93119.03;5029828;28;20061;-88
2022/05/31 07:12:43;;;;;;;113.75;42.85;;;;;;;18.89;38.99;93120.06;5032029;28;20604;-87
2022/05/31 07:15:09;;;;;;;61.85;31.67;;;;;;;18.94;38.56;93105.53;5028790;28;20360;-90
2022/05/31 07:17:35;;;;;;;62.22;31.27;;;;;;;18.94;38.54;93106.28;5036478;28;20041;-89
2022/05/31 07:20:04;;;;;;;89.93;33.70;;;;;;;19.00;38.16;93109.69;5032274;28;20037;-92
2022/05/31 07:22:29;;;;;;;127.80;39.50;;;;;;;18.98;38.42;93106.72;5011595;28;20662;-92
2022/05/31 07:24:55;;;;;;;105.60;35.67;;;;;;;19.04;38.58;93103.91;5011801;28;20061;-91
2022/05/31 07:27:21;;;;;;;89.68;36.85;;;;;;;19.05;38.29;93097.16;5015479;28;20582;-90
2022/05/31 07:29:47;;;;;;;76.35;31.17;;;;;;;19.04;38.10;93101.91;5024824;28;20069;-90
2022/05/31 07:32:12;;;;;;;106.57;35.75;;;;;;;19.03;37.80;93096.94;4995818;28;20036;-91
2022/05/31 07:34:38;;;;;;;101.45;37.85;;;;;;;19.07;37.54;93092.63;5016756;28;20037;-92
2022/05/31 07:37:04;;;;;;;97.47;40.50;;;;;;;19.05;38.20;93099.91;5017917;28;20029;-90
2022/05/31 07:39:29;;;;;;;77.60;37.95;;;;;;;19.14;37.79;93091.28;5009543;28;20077;-90
2022/05/31 07:41:56;;;;;;;93.50;34.25;;;;;;;19.15;37.40;93092.75;5018630;28;20104;-90
2022/05/31 07:44:22;;;;;;;74.38;29.23;;;;;;;19.10;37.22;93091.56;5019350;28;20163;-89
2022/05/31 07:46:47;;;;;;;79.78;30.98;;;;;;;19.13;37.13;93095.28;5033211;28;20520;-88
2022/05/31 07:49:14;;;;;;;76.60;32.58;;;;;;;19.14;37.18;93102.22;5050085;28;20037;-90
2022/05/31 07:51:41;;;;;;;84.55;33.35;;;;;;;19.13;36.89;93098.00;5023741;28;20049;-90
2022/05/31 07:54:06;;;;;;;54.55;26.20;;;;;;;19.22;36.59;93089.41;4996223;28;20042;-88
2022/05/31 07:56:32;;;;;;;70.68;25.77;;;;;;;19.25;36.18;93090.38;5010478;28;20044;-90
2022/05/31 07:58:58;;;;;;;58.63;28.77;;;;;;;19.23;36.34;93088.16;4992370;28;20045;-92
2022/05/31 08:01:25;;;;;;;52.83;25.10;;;;;;;19.24;35.65;93097.09;4987066;28;20602;-88
2022/05/31 08:03:53;;;;;;;55.13;25.25;;;;;;;19.24;35.80;93099.84;4993989;28;20081;-90
2022/05/31 08:06:20;;;;;;;53.50;26.80;;;;;;;19.17;35.57;93096.44;5008177;28;20057;-89
2022/05/31 08:08:46;;;;;;;204.30;41.17;;;;;;;19.24;35.68;93088.88;4991285;28;20046;-91
2022/05/31 08:11:16;;;;;;;157.32;54.50;;;;;;;19.32;35.58;93095.94;4995059;28;20463;-91
2022/05/31 08:13:42;;;;;;;;;;;;;;;19.34;35.82;93096.16;4963370;28;20042;-92
2022/05/31 08:16:09;;;;;;;400.40;91.25;;;;;;;19.36;36.33;93101.13;5010972;28;19932;-88
2022/05/31 08:18:35;;;;;;;181.65;39.83;;;;;;;19.34;35.63;93092.69;4990423;28;20038;-89
2022/05/31 08:21:01;;;;;;;122.13;31.13;;;;;;;19.29;35.81;93088.78;4976122;28;20046;-90
2022/05/31 08:23:28;;;;;;;116.95;29.52;;;;;;;19.32;35.73;93087.72;5013758;28;20069;-89
2022/05/31 08:25:54;;;;;;;123.90;32.42;;;;;;;19.34;35.62;93092.69;5012168;28;20034;-90
2022/05/31 08:28:20;;;;;;;84.15;26.35;;;;;;;19.30;35.45;93093.00;5020570;28;20121;-90
2022/05/31 08:30:46;;;;;;;96.40;28.42;;;;;;;19.31;35.41;93099.22;5022433;28;20423;-92
2022/05/31 08:33:13;;;;;;;62.22;21.27;;;;;;;19.29;35.29;93101.72;5010832;28;20075;-92
2022/05/31 08:35:39;;;;;;;65.22;19.63;;;;;;;19.29;35.60;93099.00;5020858;28;20030;-90
2022/05/31 08:38:05;;;;;;;49.00;18.17;;;;;;;19.28;35.20;93103.72;5015611;28;20125;-91
2022/05/31 08:40:48;;;;;;;53.67;23.55;;;;;;;19.30;34.77;93109.44;5000672;28;20052;-91
2022/05/31 08:43:17;;;;;;;54.72;24.13;;;;;;;19.32;34.52;93101.44;5024599;28;20033;-88
2022/05/31 08:45:52;;;;;;;39.83;16.90;;;;;;;19.31;34.60;93099.94;5043838;28;20438;-88
2022/05/31 08:48:35;;;;;;;34.72;14.63;;;;;;;19.38;34.58;93104.81;5006223;28;20045;-88
2022/05/31 08:56:57;;;;;;;25.35;9.82;;;;;;;19.32;34.50;93114.38;5009355;28;20095;-89
2022/05/31 08:59:46;;;;;;;56.30;23.55;;;;;;;19.36;34.51;93107.34;5022629;28;20443;-92
2022/05/31 09:02:25;;;;;;;65.72;28.60;;;;;;;19.33;34.71;93104.91;5042000;28;20230;-92
2022/05/31 09:05:03;;;;;;;121.00;55.55;;;;;;;19.39;34.74;93105.56;4998767;28;20060;-88
2022/05/31 09:07:38;;;;;;;107.30;50.03;;;;;;;19.30;35.00;93109.44;5015957;28;20064;-90
2022/05/31 09:10:07;;;;;;;133.65;55.63;;;;;;;19.27;35.42;93107.72;5024299;28;20041;-89
2022/05/31 09:12:56;;;;;;;89.63;42.83;;;;;;;19.37;35.29;93105.34;5013217;28;20041;-90
2022/05/31 09:15:24;;;;;;;85.35;43.22;;;;;;;19.36;35.11;93112.81;5041329;28;20051;-92
2022/05/31 09:17:56;;;;;;;92.05;41.25;;;;;;;19.40;34.69;93110.53;5029825;28;20040;-92
2022/05/31 09:20:36;;;;;;;76.93;38.90;;;;;;;19.40;34.88;93105.03;5033421;28;20397;-91
2022/05/31 09:23:01;;;;;;;83.00;41.70;;;;;;;19.36;34.86;93101.88;5018000;28;20553;-91
2022/05/31 09:25:28;;;;;;;83.78;45.65;;;;;;;19.34;34.76;93107.13;5006060;28;20047;-90
2022/05/31 09:27:53;;;;;;;78.18;39.25;;;;;;;19.33;34.90;93105.66;5007527;28;20040;-91
2022/05/31 09:30:25;;;;;;;79.53;34.15;;;;;;;19.37;34.40;93105.34;4990642;28;20520;-91
2022/05/31 09:33:10;;;;;;;61.47;30.20;;;;;;;19.35;33.87;93103.13;4997180;28;20041;-92
2022/05/31 09:35:57;;;;;;;54.92;26.92;;;;;;;19.36;33.85;93101.88;5040039;28;20436;-90
2022/05/31 09:38:40;;;;;;;54.58;30.05;;;;;;;19.33;34.18;93097.44;5010351;28;20056;-88
2022/05/31 09:41:18;;;;;;;50.38;24.48;;;;;;;19.43;34.32;93103.25;5046920;28;20407;-87
2022/05/31 09:44:04;;;;;;;46.65;21.70;;;;;;;19.42;34.38;93110.00;5030483;28;20417;-88
2022/05/31 09:46:38;;;;;;;43.92;20.40;;;;;;;19.34;34.49;93098.16;5023906;28;20120;-92
2022/05/31 09:49:25;;;;;;;77.05;36.88;;;;;;;19.36;34.26;93107.34;5028262;28;20856;-90
2022/05/31 09:51:50;;;;;;;75.15;36.70;;;;;;;19.39;34.46;93106.31;5013767;28;20055;-93
2022/05/31 09:57:06;;;;;;;53.17;25.05;;;;;;;19.44;34.13;93099.25;5016545;28;20190;-91
2022/05/31 09:59:49;;;;;;;67.40;31.33;;;;;;;19.46;34.18;93093.97;4976750;28;20511;-92
2022/05/31 10:02:28;;;;;;;64.15;29.63;;;;;;;19.38;34.30;93096.59;4992138;28;20046;-90
2022/05/31 10:05:17;;;;;;;66.75;32.65;;;;;;;19.43;34.63;93103.25;4986532;28;20531;-93
2022/05/31 10:07:43;;;;;;;88.18;46.33;;;;;;;19.47;34.34;93100.94;5008832;28;20045;-93
2022/05/31 10:10:15;;;;;;;133.88;61.00;;;;;;;19.50;34.54;93094.41;4993257;28;20056;-90
2022/05/31 10:12:55;;;;;;;106.45;48.15;;;;;;;19.52;34.43;93091.88;5010093;28;20042;-91
2022/05/31 10:15:40;;;;;;;108.30;42.40;;;;;;;19.54;34.61;93091.38;5009939;28;20120;-90
2022/05/31 10:18:08;;;;;;;95.20;37.85;;;;;;;19.59;34.66;93096.75;5009963;28;20037;-92
2022/05/31 10:20:33;;;;;;;79.70;34.58;;;;;;;19.55;34.58;93093.59;4941436;28;20067;-90
2022/05/31 10:23:05;;;;;;;64.22;28.30;;;;;;;19.55;34.74;93090.84;4952301;28;20083;-91
2022/05/31 10:25:45;;;;;;;55.28;23.48;;;;;;;19.56;34.60;93089.56;4935034;28;20505;-92
2022/05/31 10:28:22;;;;;;;57.05;24.02;;;;;;;19.61;34.81;93088.00;4939815;28;20058;-89
2022/05/31 10:31:15;;;;;;;53.88;26.27;;;;;;;19.62;34.49;93086.75;4953127;28;20498;-90
2022/05/31 10:33:40;;;;;;;74.93;45.83;;;;;;;19.66;34.46;93095.41;4970445;28;20107;-90
2022/05/31 10:36:14;;;;;;;72.28;33.47;;;;;;;19.67;34.66;93088.66;4924341;29;20116;-92
2022/05/31 10:38:41;;;;;;;79.57;31.15;;;;;;;19.69;35.19;93092.34;4947973;28;20573;-90
2022/05/31 10:41:07;;;;;;;67.95;30.30;;;;;;;19.75;34.73;93092.22;4937288;28;20043;-90
2022/05/31 10:43:39;;;;;;;68.50;30.92;;;;;;;19.78;34.42;93088.44;4928147;28;20074;-90
2022/05/31 10:46:13;;;;;;;75.70;28.88;;;;;;;19.75;34.32;93084.00;4965376;28;20581;-90
2022/05/31 10:48:47;;;;;;;72.90;24.45;;;;;;;19.76;34.38;93082.72;4940076;28;20065;-91
2022/05/31 10:51:18;;;;;;;77.35;23.63;;;;;;;19.77;34.27;93084.94;4949429;28;20073;-90
2022/05/31 10:53:45;;;;;;;54.95;22.08;;;;;;;19.79;34.51;93081.69;4952022;29;20067;-92
2022/05/31 10:56:15;;;;;;;53.25;18.50;;;;;;;19.77;34.25;93090.44;4943844;28;20042;-91
2022/05/31 10:58:40;;;;;;;43.80;17.65;;;;;;;19.81;34.31;93085.38;4981400;28;20084;-91
2022/05/31 11:01:22;;;;;;;36.53;16.08;;;;;;;19.80;34.31;93092.13;5015859;28;20159;-91
2022/05/31 11:04:25;;;;;;;34.75;15.43;;;;;;;19.79;34.56;93071.44;5000714;28;20034;-88
2022/05/31 11:06:58;;;;;;;36.17;14.05;;;;;;;19.82;34.64;93073.13;5019807;28;20065;-89
2022/05/31 11:12:32;;;;;;;31.60;14.73;;;;;;;19.81;34.98;93085.38;5025077;28;20044;-91
2022/05/31 11:15:32;;;;;;;24.00;13.82;;;;;;;19.81;34.87;93074.41;5012270;28;20080;-90
2022/05/31 11:18:19;;;;;;;42.67;14.05;;;;;;;19.75;35.41;93067.53;5001579;28;20068;-91
2022/05/31 11:20:54;;;;;;;33.75;18.38;;;;;;;19.70;35.69;93062.91;5015285;28;20045;-91
2022/05/31 11:23:44;;;;;;;30.90;15.02;;;;;;;19.74;35.65;93066.06;4984882;28;20065;-90
2022/05/31 11:26:19;;;;;;;24.27;9.77;;;;;;;19.75;35.64;93071.03;5031048;28;20064;-90
2022/05/31 11:29:12;;;;;;;32.35;13.95;;;;;;;19.75;35.90;93071.03;5014275;28;20038;-90
2022/05/31 11:31:56;;;;;;;29.67;15.38;;;;;;;19.71;35.80;93070.59;5028178;28;20037;-90
2022/05/31 11:34:46;;;;;;;27.95;13.38;;;;;;;19.75;35.98;93067.53;5018684;28;20109;-91
2022/05/31 11:37:23;;;;;;;27.30;11.73;;;;;;;19.76;36.03;93066.28;5011695;28;20045;-91
2022/05/31 11:39:58;;;;;;;24.45;11.32;;;;;;;19.74;36.16;93064.06;4988152;28;20045;-89
2022/05/31 11:42:31;;;;;;;27.27;11.98;;;;;;;19.75;36.16;93062.06;5003747;28;20045;-90
2022/05/31 11:45:05;;;;;;;29.70;12.20;;;;;;;19.74;36.10;93069.53;5032589;28;20056;-89
2022/05/31 11:47:32;;;;;;;24.55;12.30;;;;;;;19.76;36.08;93069.00;5034473;28;20044;-91
2022/05/31 11:50:23;;;;;;;22.30;11.75;;;;;;;19.77;36.08;93054.03;5016095;28;20041;-90
2022/05/31 11:53:13;;;;;;;42.80;19.27;;;;;;;19.78;36.19;93067.22;5002802;28;20033;-91